Time;durP1;ratioP1;P1;durP2;ratioP2;P2;SDS_P1;SDS_P2;PMS_P1;PMS_P2;Temp;Humidity;BMP_temperature;BMP_pressure;BME280_temperature;BME280_humidity;BME280_pressure;Samples;Min_cycle;Max_cycle;Signal;HPM_P1;HPM_P2
2022/05/09 00:01:28;;;;;;;13.27;9.52;;;20.10;53.50;;;;;;7367949;19;20018;-75
2022/05/09 00:03:58;;;;;;;12.27;9.02;;;20.20;53.50;;;;;;7366796;19;20086;-75
2022/05/09 00:06:29;;;;;;;12.00;8.85;;;20.10;53.40;;;;;;7366390;19;20101;-75
2022/05/09 00:08:58;;;;;;;13.00;8.65;;;20.10;53.50;;;;;;7367610;19;20010;-75
2022/05/09 00:11:27;;;;;;;14.82;9.68;;;20.10;54.00;;;;;;7365391;19;20423;-75
2022/05/09 00:13:56;;;;;;;12.65;8.70;;;20.10;53.60;;;;;;7388087;19;20031;-75
2022/05/09 00:16:25;;;;;;;12.60;8.90;;;20.10;53.60;;;;;;7367477;19;20013;-75
2022/05/09 00:18:53;;;;;;;14.85;9.43;;;20.00;53.50;;;;;;7367880;19;20014;-75
2022/05/09 00:21:25;;;;;;;15.32;10.18;;;20.10;53.50;;;;;;7364833;19;20851;-75
2022/05/09 00:23:57;;;;;;;15.88;9.13;;;20.10;53.40;;;;;;7367818;19;20013;-75
2022/05/09 00:26:27;;;;;;;12.95;8.63;;;20.10;53.40;;;;;;7369589;19;20650;-75
2022/05/09 00:28:56;;;;;;;12.45;8.88;;;20.10;53.20;;;;;;7387044;19;20026;-75
2022/05/09 00:31:25;;;;;;;12.52;9.13;;;20.10;53.10;;;;;;7367929;19;20014;-75
2022/05/09 00:33:54;;;;;;;17.52;9.57;;;20.00;53.10;;;;;;7366886;19;20383;-75
2022/05/09 00:36:23;;;;;;;15.25;9.05;;;20.10;53.10;;;;;;7368259;19;20022;-75
2022/05/09 00:38:56;;;;;;;14.93;9.02;;;20.00;53.20;;;;;;7367198;19;20098;-74
2022/05/09 00:44:19;;;;;;;12.13;9.23;;;20.00;53.30;;;;;;7367347;19;20322;-76
2022/05/09 00:46:51;;;;;;;13.57;10.00;;;19.90;53.20;;;;;;7386978;19;20086;-75
2022/05/09 00:49:26;;;;;;;15.63;9.32;;;19.90;53.30;;;;;;7366490;19;20010;-74
2022/05/09 00:51:59;;;;;;;15.32;8.93;;;19.90;53.50;;;;;;7366678;19;20360;-76
2022/05/09 00:54:35;;;;;;;11.95;9.43;;;19.80;53.40;;;;;;7367401;19;20032;-75
2022/05/09 00:57:09;;;;;;;15.38;9.52;;;19.80;53.60;;;;;;7368010;19;20028;-76
2022/05/09 00:59:39;;;;;;;12.10;8.73;;;19.70;53.60;;;;;;7365973;19;20014;-77
2022/05/09 01:02:10;;;;;;;17.55;9.27;;;19.60;53.60;;;;;;7388623;19;20018;-74
2022/05/09 01:04:47;;;;;;;11.57;9.25;;;19.60;53.80;;;;;;7365813;19;20017;-77
2022/05/09 01:07:16;;;;;;;14.35;9.32;;;19.50;54.00;;;;;;7365564;19;20010;-76
2022/05/09 01:09:47;;;;;;;15.88;9.18;;;19.50;54.20;;;;;;7367058;19;20010;-76
2022/05/09 01:12:20;;;;;;;17.95;10.20;;;19.50;54.30;;;;;;7365506;19;20336;-74
2022/05/09 01:14:50;;;;;;;14.52;9.32;;;19.50;54.20;;;;;;7365647;19;20015;-75
2022/05/09 01:17:21;;;;;;;15.85;9.80;;;19.50;54.40;;;;;;7365667;19;20460;-75
2022/05/09 01:19:52;;;;;;;17.48;9.82;;;19.40;54.40;;;;;;7386720;19;20192;-75
2022/05/09 01:22:26;;;;;;;14.95;9.43;;;19.40;54.60;;;;;;7367840;19;20444;-75
2022/05/09 01:25:02;;;;;;;13.60;9.15;;;19.40;54.70;;;;;;7367191;19;20069;-75
2022/05/09 01:27:31;;;;;;;16.52;9.50;;;19.40;54.60;;;;;;7366318;19;20589;-75
2022/05/09 01:30:06;;;;;;;15.02;9.38;;;19.40;54.40;;;;;;7366284;19;20549;-75
2022/05/09 01:32:38;;;;;;;18.88;9.55;;;19.40;54.40;;;;;;7364059;19;20107;-75
2022/05/09 01:35:13;;;;;;;13.95;9.02;;;19.50;54.30;;;;;;7386161;19;20007;-75
2022/05/09 01:37:48;;;;;;;14.60;9.25;;;19.40;54.20;;;;;;7363881;19;20566;-76
2022/05/09 01:40:17;;;;;;;13.80;9.02;;;19.40;54.30;;;;;;7364754;19;20089;-76
2022/05/09 01:42:46;;;;;;;13.77;8.93;;;19.40;54.30;;;;;;7365382;19;20021;-75
2022/05/09 01:45:16;;;;;;;12.50;9.30;;;19.30;54.30;;;;;;7363782;19;20086;-75
2022/05/09 01:50:26;;;;;;;15.15;9.73;;;19.30;54.30;;;;;;7365876;19;20086;-75
2022/05/09 01:52:58;;;;;;;13.00;9.80;;;19.30;54.30;;;;;;7385764;19;20017;-75
2022/05/09 01:55:26;;;;;;;11.65;8.77;;;19.20;54.30;;;;;;7364678;19;20357;-75
2022/05/09 01:57:55;;;;;;;11.35;8.85;;;19.20;54.50;;;;;;7364082;19;20453;-74
2022/05/09 02:00:28;;;;;;;13.57;8.27;;;19.10;54.60;;;;;;7364594;19;20056;-75
2022/05/09 02:02:57;;;;;;;14.18;8.88;;;19.10;54.80;;;;;;7364431;19;20006;-74
2022/05/09 02:05:26;;;;;;;11.57;8.65;;;19.10;54.80;;;;;;7363719;19;20018;-74
2022/05/09 02:07:58;;;;;;;13.43;9.27;;;19.00;54.70;;;;;;7385407;19;20042;-76
2022/05/09 02:10:26;;;;;;;20.13;9.38;;;19.00;54.70;;;;;;7362497;19;20022;-76
2022/05/09 02:12:55;;;;;;;14.15;8.65;;;19.00;54.70;;;;;;7364920;19;20014;-74
2022/05/09 02:15:31;;;;;;;17.92;8.73;;;19.00;54.80;;;;;;7363568;19;20031;-76
2022/05/09 02:17:59;;;;;;;13.25;8.52;;;19.00;54.80;;;;;;7363491;19;20010;-76
2022/05/09 02:20:28;;;;;;;14.60;8.60;;;19.00;54.80;;;;;;7363835;19;20167;-75
2022/05/09 02:23:00;;;;;;;14.05;8.23;;;19.00;54.70;;;;;;7384374;19;20329;-75
2022/05/09 02:25:36;;;;;;;18.60;9.00;;;19.00;55.40;;;;;;7362095;19;20036;-75
2022/05/09 02:28:09;;;;;;;11.68;8.32;;;19.00;54.60;;;;;;7362906;19;20358;-75
2022/05/09 02:30:38;;;;;;;13.25;8.30;;;19.00;54.50;;;;;;7364579;19;20054;-74
2022/05/09 02:33:08;;;;;;;14.73;8.35;;;19.00;54.40;;;;;;7363742;19;20023;-75
2022/05/09 02:35:40;;;;;;;14.57;8.95;;;19.00;54.60;;;;;;7365132;19;20319;-74
2022/05/09 02:38:12;;;;;;;17.45;9.32;;;18.90;54.50;;;;;;7376642;19;20035;-75
2022/05/09 02:40:42;;;;;;;13.27;9.00;;;18.80;54.60;;;;;;7383382;19;20102;-75
2022/05/09 02:43:10;;;;;;;13.73;8.63;;;18.70;54.60;;;;;;7362189;19;20029;-75
2022/05/09 02:45:40;;;;;;;14.70;8.48;;;18.70;54.70;;;;;;7362428;19;20738;-75
2022/05/09 02:48:10;;;;;;;13.27;7.82;;;18.70;54.60;;;;;;7366585;19;20015;-75
2022/05/09 02:50:39;;;;;;;15.90;8.25;;;18.70;54.70;;;;;;7367991;19;20503;-74
2022/05/09 02:53:10;;;;;;;15.40;8.27;;;18.70;54.50;;;;;;7393603;19;20353;-75
2022/05/09 02:55:42;;;;;;;13.48;7.88;;;18.70;54.50;;;;;;7371189;19;20044;-75
2022/05/09 02:58:11;;;;;;;13.45;8.00;;;18.70;54.50;;;;;;7371871;19;20018;-75
2022/05/09 03:00:39;;;;;;;11.43;7.03;;;18.70;54.40;;;;;;7369269;19;20090;-74
2022/05/09 03:05:50;;;;;;;16.40;8.30;;;18.70;54.10;;;;;;7369615;19;20019;-75
2022/05/09 03:08:20;;;;;;;14.68;7.03;;;18.60;54.10;;;;;;7366781;19;20049;-76
2022/05/09 03:10:51;;;;;;;14.82;8.32;;;18.60;54.40;;;;;;7391461;19;20335;-76
2022/05/09 03:13:20;;;;;;;12.95;9.18;;;18.60;54.50;;;;;;7370655;19;20107;-74
2022/05/09 03:15:51;;;;;;;14.93;8.30;;;18.60;54.60;;;;;;7370692;19;20074;-74
2022/05/09 03:18:23;;;;;;;12.38;7.90;;;18.50;54.60;;;;;;7368710;19;20017;-74
2022/05/09 03:20:52;;;;;;;19.02;9.32;;;18.50;54.70;;;;;;7369822;19;20086;-76
2022/05/09 03:23:22;;;;;;;18.17;9.68;;;18.50;54.50;;;;;;7367944;19;20325;-76
2022/05/09 03:25:53;;;;;;;12.45;8.70;;;18.50;54.50;;;;;;7389903;19;20025;-77
2022/05/09 03:28:25;;;;;;;14.13;9.25;;;18.40;54.60;;;;;;7369607;19;20339;-74
2022/05/09 03:30:56;;;;;;;15.32;9.13;;;18.30;54.70;;;;;;7369554;19;20075;-75
2022/05/09 03:33:27;;;;;;;17.83;8.20;;;18.30;55.40;;;;;;7368261;19;20015;-74
2022/05/09 03:35:56;;;;;;;13.50;7.63;;;18.30;54.80;;;;;;7369938;19;20006;-75
2022/05/09 03:38:25;;;;;;;12.15;7.38;;;18.20;54.90;;;;;;7369575;19;20014;-74
2022/05/09 03:40:56;;;;;;;14.20;8.20;;;18.30;54.80;;;;;;7388028;19;20014;-75
2022/05/09 03:43:25;;;;;;;;;;;18.20;54.70;;;;;;7368588;19;20036;-75
2022/05/09 03:45:55;;;;;;;13.07;7.30;;;18.30;54.80;;;;;;7368884;19;20010;-75
2022/05/09 03:48:23;;;;;;;12.38;7.40;;;18.20;54.40;;;;;;7368799;19;20082;-74
2022/05/09 03:50:52;;;;;;;13.68;7.43;;;18.30;54.40;;;;;;7369448;19;20123;-75
2022/05/09 03:53:22;;;;;;;11.88;7.53;;;18.20;54.30;;;;;;7366641;19;20070;-75
2022/05/09 03:55:50;;;;;;;11.52;7.72;;;18.20;54.30;;;;;;7391279;19;20018;-75
2022/05/09 03:58:22;;;;;;;11.70;7.43;;;18.20;54.50;;;;;;7367834;19;20074;-75
2022/05/09 04:00:51;;;;;;;15.15;8.20;;;18.20;54.50;;;;;;7365228;19;20018;-74
2022/05/09 04:03:20;;;;;;;14.00;7.70;;;18.20;54.20;;;;;;7367656;19;20617;-75
2022/05/09 04:05:49;;;;;;;14.55;7.32;;;18.20;54.30;;;;;;7369033;19;20014;-75
2022/05/09 04:08:20;;;;;;;11.38;7.40;;;18.30;54.50;;;;;;7367928;19;20086;-75
2022/05/09 04:10:51;;;;;;;13.03;7.37;;;18.20;54.40;;;;;;7389730;19;20098;-75
2022/05/09 04:13:22;;;;;;;16.02;7.47;;;18.20;54.30;;;;;;7368098;19;20270;-75
2022/05/09 04:18:33;;;;;;;11.40;7.63;;;18.20;54.20;;;;;;7369565;19;20071;-75
2022/05/09 04:21:02;;;;;;;14.02;7.68;;;18.20;54.30;;;;;;7367947;19;20016;-75
2022/05/09 04:23:31;;;;;;;18.60;8.38;;;18.20;54.30;;;;;;7367223;19;20014;-75
2022/05/09 04:26:00;;;;;;;13.27;7.10;;;18.10;54.30;;;;;;7387568;19;20200;-76
2022/05/09 04:28:31;;;;;;;13.75;6.85;;;18.10;54.20;;;;;;7368205;19;20053;-76
2022/05/09 04:31:00;;;;;;;12.70;7.35;;;18.10;54.20;;;;;;7368578;19;20007;-76
2022/05/09 04:33:29;;;;;;;11.60;6.88;;;18.10;54.20;;;;;;7365053;19;20006;-76
2022/05/09 04:35:58;;;;;;;14.52;7.10;;;18.10;54.20;;;;;;7368709;19;20102;-75
2022/05/09 04:38:27;;;;;;;12.07;7.72;;;18.10;54.30;;;;;;7368466;19;20010;-75
2022/05/09 04:40:58;;;;;;;12.85;7.97;;;18.10;54.10;;;;;;7387265;19;20011;-75
2022/05/09 04:43:30;;;;;;;13.35;8.05;;;18.10;54.20;;;;;;7366305;19;20017;-75
2022/05/09 04:46:04;;;;;;;12.38;7.57;;;18.10;54.20;;;;;;7367215;19;20074;-75
2022/05/09 04:48:33;;;;;;;14.68;7.57;;;18.10;54.00;;;;;;7366863;19;20070;-75
2022/05/09 04:51:02;;;;;;;13.15;7.53;;;18.10;54.10;;;;;;7367866;19;20393;-75
2022/05/09 04:53:31;;;;;;;12.20;7.10;;;18.10;54.00;;;;;;7365023;19;20027;-75
2022/05/09 04:56:00;;;;;;;13.70;7.53;;;18.10;54.00;;;;;;7390839;19;20018;-76
2022/05/09 04:58:30;;;;;;;14.75;8.60;;;18.10;54.00;;;;;;7365389;19;20090;-75
2022/05/09 05:00:59;;;;;;;38.83;23.90;;;18.00;54.00;;;;;;7364394;19;20114;-75
2022/05/09 05:03:30;;;;;;;24.33;8.80;;;18.00;54.40;;;;;;7366029;19;20007;-75
2022/05/09 05:05:59;;;;;;;;;;;18.00;54.70;;;;;;7366688;19;20086;-74
2022/05/09 05:08:30;;;;;;;17.40;8.40;;;17.90;54.70;;;;;;7367330;19;19923;-75
2022/05/09 05:10:59;;;;;;;15.70;7.68;;;17.80;54.80;;;;;;7386541;19;20443;-75
2022/05/09 05:13:28;;;;;;;14.48;7.57;;;17.80;55.10;;;;;;7364848;19;20787;-74
2022/05/09 05:15:58;;;;;;;19.70;9.45;;;17.80;55.30;;;;;;7365988;19;20011;-75
2022/05/09 05:18:32;;;;;;;15.30;7.93;;;17.80;55.80;;;;;;7365842;19;20078;-75
2022/05/09 05:21:09;;;;;;;16.23;8.05;;;17.80;56.30;;;;;;7363618;19;20011;-75
2022/05/09 05:23:38;;;;;;;20.50;7.53;;;17.80;55.80;;;;;;7366707;19;20730;-74
2022/05/09 05:26:07;;;;;;;13.75;7.68;;;17.80;55.90;;;;;;7389607;19;20035;-75
2022/05/09 05:28:36;;;;;;;12.02;7.28;;;17.80;56.00;;;;;;7366476;19;20455;-74
2022/05/09 05:31:15;;;;;;;17.08;7.93;;;17.90;56.10;;;;;;7365468;19;20022;-76
2022/05/09 05:33:47;;;;;;;12.80;7.93;;;17.90;56.10;;;;;;7365958;19;20070;-76
2022/05/09 05:36:16;;;;;;;48.75;32.92;;;17.90;56.10;;;;;;7367067;19;20022;-76
2022/05/09 05:38:51;;;;;;;17.13;11.57;;;18.00;56.20;;;;;;7362396;19;20010;-76
2022/05/09 05:41:20;;;;;;;22.85;14.73;;;18.10;56.10;;;;;;7364645;19;20021;-75
2022/05/09 05:43:49;;;;;;;15.13;7.93;;;18.10;56.10;;;;;;7387972;19;20013;-76
2022/05/09 05:46:19;;;;;;;13.55;7.70;;;18.10;56.00;;;;;;7365102;19;20021;-76
2022/05/09 05:48:50;;;;;;;11.80;7.65;;;18.20;56.10;;;;;;7363944;19;20362;-77
2022/05/09 05:51:19;;;;;;;14.73;7.57;;;18.20;56.20;;;;;;7365377;19;20025;-75
2022/05/09 05:53:48;;;;;;;11.50;7.20;;;18.30;56.30;;;;;;7365770;19;20014;-74
2022/05/09 05:56:17;;;;;;;14.48;7.32;;;18.30;56.40;;;;;;7361188;19;20049;-73
2022/05/09 05:58:46;;;;;;;25.58;7.85;;;18.30;56.40;;;;;;7384986;19;20629;-74
2022/05/09 06:01:14;;;;;;;15.40;7.18;;;18.30;57.10;;;;;;7364008;19;20093;-74
2022/05/09 06:03:43;;;;;;;20.80;8.50;;;18.40;56.70;;;;;;7365383;19;20389;-74
2022/05/09 06:06:15;;;;;;;13.32;8.32;;;18.40;56.50;;;;;;7363788;19;20027;-74
2022/05/09 06:08:45;;;;;;;14.90;8.15;;;18.50;56.30;;;;;;7366576;19;20452;-74
2022/05/09 06:11:15;;;;;;;15.80;7.60;;;18.50;56.10;;;;;;7365047;19;20589;-74
2022/05/09 06:13:44;;;;;;;16.67;7.72;;;18.60;56.90;;;;;;7384605;19;20015;-74
2022/05/09 06:16:13;;;;;;;18.27;7.88;;;18.60;56.00;;;;;;7362655;19;20018;-74
2022/05/09 06:18:42;;;;;;;18.63;7.72;;;18.70;56.20;;;;;;7364126;19;20011;-74
2022/05/09 06:21:10;;;;;;;17.67;7.90;;;18.70;56.70;;;;;;7365423;19;20011;-74
2022/05/09 06:23:42;;;;;;;15.07;8.30;;;18.80;56.90;;;;;;7370922;19;20458;-74
2022/05/09 06:26:14;;;;;;;17.77;7.78;;;18.80;57.00;;;;;;7369380;19;20031;-74
2022/05/09 06:28:42;;;;;;;17.00;7.28;;;18.90;57.00;;;;;;7390157;19;20019;-74
2022/05/09 06:31:11;;;;;;;17.42;8.18;;;18.90;56.50;;;;;;7370990;19;20044;-74
2022/05/09 06:33:40;;;;;;;21.02;8.20;;;19.00;55.90;;;;;;7368710;19;20051;-74
2022/05/09 06:36:09;;;;;;;13.55;7.57;;;19.00;55.30;;;;;;7371081;19;20090;-73
2022/05/09 06:38:38;;;;;;;15.45;7.68;;;19.10;55.40;;;;;;7370706;19;20815;-73
2022/05/09 06:41:10;;;;;;;19.38;7.88;;;19.10;55.20;;;;;;7392598;19;20471;-74
2022/05/09 06:43:39;;;;;;;21.23;8.95;;;19.20;55.30;;;;;;7370067;19;20330;-74
2022/05/09 06:46:08;;;;;;;23.13;8.80;;;19.30;54.80;;;;;;7369715;19;20018;-74
2022/05/09 06:48:37;;;;;;;21.55;8.55;;;19.30;54.50;;;;;;7371887;19;20027;-74
2022/05/09 06:51:06;;;;;;;19.10;8.50;;;19.30;54.60;;;;;;7367979;19;20018;-74
2022/05/09 06:53:34;;;;;;;18.42;8.60;;;19.40;54.60;;;;;;7369462;19;20018;-74
2022/05/09 06:56:04;;;;;;;21.25;8.30;;;19.40;54.30;;;;;;7392916;19;20106;-74
2022/05/09 06:58:35;;;;;;;18.08;8.45;;;19.50;54.20;;;;;;7371265;19;20014;-74
2022/05/09 07:01:13;;;;;;;19.10;8.52;;;19.50;54.70;;;;;;7370598;19;20440;-74
2022/05/09 07:03:42;;;;;;;18.02;7.93;;;19.50;53.80;;;;;;7369651;19;20023;-74
2022/05/09 07:06:11;;;;;;;20.55;9.15;;;19.40;54.10;;;;;;7369957;19;20014;-74
2022/05/09 07:08:42;;;;;;;26.30;8.95;;;19.40;54.30;;;;;;7366582;19;20441;-74
2022/05/09 07:11:12;;;;;;;25.50;9.75;;;19.40;54.10;;;;;;7370615;19;20098;-74
2022/05/09 07:13:44;;;;;;;21.90;9.98;;;19.40;54.00;;;;;;7391666;19;20017;-74
2022/05/09 07:16:13;;;;;;;23.23;10.40;;;19.40;54.00;;;;;;7370216;19;20066;-74
2022/05/09 07:18:42;;;;;;;28.60;9.27;;;19.50;54.10;;;;;;7370182;19;20015;-74
2022/05/09 07:21:11;;;;;;;22.98;10.13;;;19.50;54.30;;;;;;7370695;19;20014;-74
2022/05/09 07:23:40;;;;;;;20.33;9.65;;;19.40;53.90;;;;;;7367913;19;20097;-74
2022/05/09 07:26:09;;;;;;;24.98;9.77;;;19.50;53.90;;;;;;7389965;19;20035;-74
2022/05/09 07:28:38;;;;;;;23.83;9.73;;;19.50;54.00;;;;;;7386534;19;20018;-74
2022/05/09 07:31:09;;;;;;;25.08;9.98;;;19.60;53.90;;;;;;7369101;19;20043;-73
2022/05/09 07:33:38;;;;;;;22.90;9.95;;;19.60;54.00;;;;;;7367214;19;20349;-73
2022/05/09 07:36:08;;;;;;;20.70;9.85;;;19.60;53.60;;;;;;7370069;19;20011;-74
2022/05/09 07:38:37;;;;;;;20.10;10.30;;;19.80;53.90;;;;;;7367957;19;20609;-74
2022/05/09 07:41:05;;;;;;;20.35;10.25;;;19.70;53.50;;;;;;7391387;19;20018;-74
2022/05/09 07:43:34;;;;;;;29.30;11.07;;;19.80;53.50;;;;;;7366959;19;20010;-74
2022/05/09 07:46:03;;;;;;;25.65;10.82;;;19.80;53.60;;;;;;7365927;19;20027;-74
2022/05/09 07:48:34;;;;;;;30.27;10.43;;;19.70;53.60;;;;;;7368606;19;20463;-73
2022/05/09 07:51:04;;;;;;;31.55;10.65;;;19.70;53.70;;;;;;7368367;19;20018;-74
2022/05/09 07:53:35;;;;;;;24.25;10.07;;;19.80;53.80;;;;;;7370048;19;20082;-73
2022/05/09 07:56:06;;;;;;;27.58;10.35;;;19.80;53.80;;;;;;7390414;19;20086;-74
2022/05/09 07:58:35;;;;;;;22.30;10.27;;;20.00;53.80;;;;;;7368626;19;20070;-74
2022/05/09 08:01:04;;;;;;;23.75;10.30;;;20.10;53.70;;;;;;7366506;19;20230;-74
2022/05/09 08:03:42;;;;;;;18.77;9.32;;;20.20;53.70;;;;;;7367096;19;20014;-74
2022/05/09 08:06:11;;;;;;;23.80;11.05;;;20.20;53.50;;;;;;7366759;19;20015;-74
2022/05/09 08:08:40;;;;;;;23.27;11.32;;;20.30;53.50;;;;;;7369651;19;20053;-74
2022/05/09 08:11:11;;;;;;;24.42;10.43;;;20.40;54.00;;;;;;7382008;19;20054;-75
2022/05/09 08:13:43;;;;;;;27.50;9.15;;;20.40;53.00;;;;;;7388213;19;20466;-74
2022/05/09 08:16:12;;;;;;;24.38;10.02;;;20.50;53.40;;;;;;7367810;19;20040;-74
2022/05/09 08:18:44;;;;;;;20.02;9.50;;;20.60;53.60;;;;;;7367217;19;20048;-74
2022/05/09 08:21:13;;;;;;;22.25;9.48;;;20.60;53.60;;;;;;7366872;19;20069;-74
2022/05/09 08:23:42;;;;;;;20.95;9.98;;;20.60;53.40;;;;;;7365759;19;20062;-74
2022/05/09 08:26:11;;;;;;;20.60;9.40;;;20.70;53.30;;;;;;7364373;19;20086;-75
2022/05/09 08:28:41;;;;;;;22.95;9.25;;;20.80;53.30;;;;;;7390495;19;20025;-74
2022/05/09 08:31:10;;;;;;;23.27;10.05;;;20.80;53.60;;;;;;7367496;19;20026;-74
2022/05/09 08:33:39;;;;;;;25.33;10.30;;;20.80;53.70;;;;;;7368582;19;20014;-73
2022/05/09 08:36:11;;;;;;;19.33;9.15;;;20.90;53.60;;;;;;7366084;19;20018;-74
2022/05/09 08:38:39;;;;;;;16.50;9.18;;;20.90;53.40;;;;;;7366919;19;20010;-73
2022/05/09 08:41:11;;;;;;;17.58;8.70;;;21.00;53.40;;;;;;7387453;19;20098;-73
2022/05/09 08:44:05;;;;;;;22.58;8.93;;;21.00;53.40;;;;;;7364098;19;20056;-73
2022/05/09 08:46:41;;;;;;;23.80;10.40;;;21.00;53.60;;;;;;7367290;19;20014;-74
2022/05/09 08:49:38;;;;;;;21.42;9.18;;;21.10;53.30;;;;;;7366241;19;20010;-74
2022/05/09 08:52:18;;;;;;;20.33;9.48;;;21.20;53.30;;;;;;7364836;19;20031;-73
2022/05/09 08:54:47;;;;;;;23.13;9.63;;;21.20;53.10;;;;;;7366965;19;20121;-73
2022/05/09 08:57:22;;;;;;;18.98;9.00;;;21.30;53.10;;;;;;7365762;19;20363;-73
2022/05/09 08:59:56;;;;;;;18.63;8.80;;;21.30;53.80;;;;;;7366291;19;20014;-73
2022/05/09 09:02:31;;;;;;;28.65;9.60;;;21.40;53.10;;;;;;7364986;19;20017;-73
2022/05/09 09:05:03;;;;;;;17.67;9.70;;;21.40;53.50;;;;;;7388987;19;20295;-73
2022/05/09 09:07:55;;;;;;;22.95;9.40;;;21.40;52.80;;;;;;7366740;19;20015;-73
2022/05/09 09:10:31;;;;;;;22.00;10.18;;;21.40;53.10;;;;;;7365983;19;20018;-73
2022/05/09 09:13:20;;;;;;;26.33;12.43;;;21.50;52.70;;;;;;7365881;19;20011;-73
2022/05/09 09:15:56;;;;;;;23.70;12.48;;;21.40;51.50;;;;;;7366823;19;20011;-73
2022/05/09 09:18:39;;;;;;;24.27;11.75;;;21.50;51.60;;;;;;7364336;19;20015;-74
2022/05/09 09:21:16;;;;;;;29.55;13.77;;;21.50;51.90;;;;;;7365388;19;20007;-74
2022/05/09 09:24:22;;;;;;;37.83;18.95;;;21.50;51.10;;;;;;7367095;19;20082;-74
2022/05/09 09:27:03;;;;;;;59.28;35.67;;;21.40;51.40;;;;;;7365578;19;20106;-75
2022/05/09 09:29:35;;;;;;;25.20;14.68;;;21.40;51.40;;;;;;7364907;19;20643;-75
2022/05/09 09:32:09;;;;;;;30.98;17.95;;;21.40;51.40;;;;;;7386911;19;20017;-75
2022/05/09 09:34:43;;;;;;;24.73;14.48;;;21.40;51.60;;;;;;7365526;19;20582;-74
2022/05/09 09:37:23;;;;;;;33.72;16.58;;;21.50;51.70;;;;;;7362477;19;20022;-74
2022/05/09 09:39:55;;;;;;;23.73;12.17;;;21.50;51.30;;;;;;7364651;19;20086;-75
2022/05/09 09:42:23;;;;;;;;;;;21.60;51.30;;;;;;7366220;19;20041;-74
2022/05/09 09:44:54;;;;;;;21.30;11.30;;;21.80;51.10;;;;;;7365276;19;19935;-74
2022/05/09 09:47:27;;;;;;;26.38;11.95;;;21.80;51.00;;;;;;7367437;19;20015;-73
2022/05/09 09:50:13;;;;;;;28.33;11.15;;;21.80;50.90;;;;;;7386940;19;20021;-75
2022/05/09 09:52:45;;;;;;;22.13;12.32;;;21.80;50.20;;;;;;7364584;19;20098;-74
2022/05/09 09:55:27;;;;;;;22.80;11.07;;;21.90;50.20;;;;;;7363985;19;20011;-74
2022/05/09 09:57:56;;;;;;;25.52;12.10;;;21.90;50.00;;;;;;7368240;19;20055;-73
2022/05/09 10:00:30;;;;;;;24.67;11.10;;;22.00;49.40;;;;;;7370421;19;20459;-75
2022/05/09 10:03:19;;;;;;;23.95;11.35;;;22.00;49.40;;;;;;7370778;19;20098;-75
2022/05/09 10:05:48;;;;;;;24.80;11.60;;;22.00;49.80;;;;;;7371637;19;20113;-75
2022/05/09 10:08:23;;;;;;;25.35;11.63;;;22.10;50.00;;;;;;7371128;19;20014;-75
2022/05/09 10:11:05;;;;;;;25.88;12.45;;;22.10;49.70;;;;;;7392088;19;20381;-75
2022/05/09 10:13:39;;;;;;;21.45;11.52;;;22.10;49.50;;;;;;7371062;19;20378;-73
2022/05/09 10:16:11;;;;;;;21.17;11.15;;;22.20;49.10;;;;;;7371008;19;20076;-75
2022/05/09 10:18:42;;;;;;;18.73;12.00;;;22.20;49.50;;;;;;7372205;19;20664;-75
2022/05/09 10:24:47;;;;;;;29.77;15.98;;;22.30;48.90;;;;;;7371324;19;20077;-75
2022/05/09 10:26:57;;;;;;;23.52;10.18;;;22.40;49.30;;;;;;7371959;19;20038;-75
2022/05/09 10:29:30;;;;;;;18.65;9.95;;;22.60;49.50;;;;;;7371028;19;20022;-77
2022/05/09 10:32:02;;;;;;;23.80;11.43;;;22.60;49.80;;;;;;7392586;19;20025;-76
2022/05/09 10:34:41;;;;;;;20.63;10.88;;;22.70;49.60;;;;;;7369892;19;20018;-75
2022/05/09 10:37:18;;;;;;;21.27;11.18;;;22.80;48.90;;;;;;7369219;19;20015;-75
2022/05/09 10:39:54;;;;;;;21.33;11.77;;;22.90;49.00;;;;;;7371577;19;20014;-75
2022/05/09 10:42:34;;;;;;;19.65;11.85;;;22.80;48.50;;;;;;7370694;19;20078;-74
2022/05/09 10:45:09;;;;;;;19.65;10.60;;;22.90;48.30;;;;;;7369898;19;20011;-75
2022/05/09 10:47:44;;;;;;;20.55;11.13;;;22.90;48.60;;;;;;7367976;19;20610;-79
2022/05/09 10:50:20;;;;;;;18.17;10.77;;;23.00;48.50;;;;;;7371296;19;20082;-76
2022/05/09 10:52:59;;;;;;;19.30;10.25;;;23.00;48.10;;;;;;7392408;19;20086;-75
2022/05/09 10:55:33;;;;;;;16.98;10.25;;;23.10;48.30;;;;;;7369632;19;20011;-75
2022/05/09 10:58:10;;;;;;;15.38;9.65;;;23.10;49.10;;;;;;7371036;19;20015;-81
2022/05/09 11:00:45;;;;;;;19.98;9.95;;;23.30;48.60;;;;;;7372863;19;20067;-75
2022/05/09 11:03:21;;;;;;;19.63;10.73;;;23.30;48.50;;;;;;7370323;19;20011;-78
2022/05/09 11:06:15;;;;;;;18.60;10.35;;;23.40;48.30;;;;;;7368193;19;20011;-77
2022/05/09 11:09:13;;;;;;;25.35;10.25;;;23.40;47.80;;;;;;7370338;19;20082;-76
2022/05/09 11:11:58;;;;;;;20.27;9.68;;;23.50;47.70;;;;;;7369566;19;20014;-78
2022/05/09 11:14:38;;;;;;;17.80;10.60;;;23.60;47.40;;;;;;7367880;19;20019;-75
2022/05/09 11:17:31;;;;;;;18.48;9.70;;;23.60;47.50;;;;;;7388427;19;20404;-75
2022/05/09 11:20:14;;;;;;;20.90;10.05;;;23.70;47.10;;;;;;7366908;19;20330;-76
2022/05/09 11:22:54;;;;;;;19.95;9.93;;;23.80;46.80;;;;;;7366293;19;20011;-76
2022/05/09 11:25:42;;;;;;;17.00;10.55;;;23.80;46.40;;;;;;7367333;19;20073;-77
2022/05/09 11:28:25;;;;;;;19.02;9.60;;;23.90;45.70;;;;;;7367124;19;20045;-76
2022/05/09 11:31:06;;;;;;;17.98;10.68;;;23.90;45.80;;;;;;7366518;19;20010;-77
2022/05/09 11:33:46;;;;;;;13.63;8.70;;;23.90;45.60;;;;;;7367166;19;20019;-77
2022/05/09 11:36:29;;;;;;;15.90;8.53;;;23.90;46.00;;;;;;7368284;19;20494;-75
2022/05/09 11:39:03;;;;;;;19.38;9.77;;;23.90;46.10;;;;;;7365818;19;20022;-76
2022/05/09 11:41:36;;;;;;;18.80;8.63;;;23.90;45.40;;;;;;7307965;19;20329;-77
2022/05/09 11:44:15;;;;;;;18.08;9.40;;;23.90;45.70;;;;;;7381680;19;20359;-76
2022/05/09 11:47:13;;;;;;;13.77;9.15;;;24.00;45.60;;;;;;7365772;19;20015;-76
2022/05/09 11:50:10;;;;;;;22.15;10.65;;;23.90;45.60;;;;;;7365046;19;20018;-76
2022/05/09 11:52:43;;;;;;;15.90;9.70;;;24.00;45.10;;;;;;7367997;19;20142;-76
2022/05/09 11:55:17;;;;;;;19.40;10.30;;;24.00;44.90;;;;;;7366373;19;20097;-76
2022/05/09 11:57:50;;;;;;;14.60;9.13;;;24.00;45.10;;;;;;7366962;19;20044;-76
2022/05/09 12:00:49;;;;;;;14.25;8.70;;;24.00;45.00;;;;;;7367261;19;20018;-76
2022/05/09 12:04:01;;;;;;;14.98;8.60;;;24.10;45.10;;;;;;7363406;19;20018;-76
2022/05/09 12:06:44;;;;;;;18.80;8.60;;;24.10;45.00;;;;;;7366122;19;20039;-77
2022/05/09 12:09:16;;;;;;;16.25;8.80;;;24.10;45.30;;;;;;7364101;19;20018;-77
2022/05/09 12:11:54;;;;;;;16.23;8.73;;;24.10;45.40;;;;;;7365584;19;20483;-76
2022/05/09 12:14:53;;;;;;;12.32;7.57;;;24.30;44.80;;;;;;7366183;19;20049;-77
2022/05/09 12:17:37;;;;;;;11.38;8.02;;;24.30;43.50;;;;;;7366060;19;20022;-76
2022/05/09 12:20:12;;;;;;;13.27;6.85;;;24.50;43.10;;;;;;7383089;19;20006;-76
2022/05/09 12:22:49;;;;;;;356.55;277.40;;;24.50;43.00;;;;;;7365016;19;20082;-75
2022/05/09 12:25:47;;;;;;;10.93;7.97;;;24.60;43.10;;;;;;7365722;19;20019;-76
2022/05/09 12:28:25;;;;;;;13.75;7.55;;;24.80;42.70;;;;;;7364630;19;20026;-77
2022/05/09 12:30:56;;;;;;;13.70;6.93;;;24.90;43.20;;;;;;7368804;19;20007;-76
2022/05/09 12:33:35;;;;;;;15.13;7.63;;;25.00;43.10;;;;;;7369623;19;20018;-76
2022/05/09 12:36:08;;;;;;;11.52;6.40;;;25.10;43.20;;;;;;7366398;19;20011;-76
2022/05/09 12:38:41;;;;;;;11.38;6.75;;;25.20;42.60;;;;;;7365380;19;20070;-77
2022/05/09 12:41:18;;;;;;;9.75;7.35;;;25.30;42.30;;;;;;7369630;19;20102;-77
2022/05/09 12:43:52;;;;;;;13.18;6.00;;;25.30;41.20;;;;;;7386875;19;20011;-75
2022/05/09 12:46:25;;;;;;;10.70;6.22;;;25.30;41.80;;;;;;7365324;19;20022;-76
2022/05/09 12:48:56;;;;;;;12.10;6.95;;;25.40;41.80;;;;;;7368362;19;20078;-75
2022/05/09 12:51:25;;;;;;;10.60;6.28;;;25.60;42.20;;;;;;7367302;19;20086;-76
2022/05/09 12:53:57;;;;;;;11.65;6.50;;;25.70;42.00;;;;;;7367664;19;20086;-76
2022/05/09 12:56:30;;;;;;;8.57;5.65;;;25.80;41.30;;;;;;7367312;19;20018;-75
2022/05/09 12:59:04;;;;;;;10.30;5.82;;;25.90;41.40;;;;;;7387964;19;20341;-74
2022/05/09 13:01:33;;;;;;;9.43;5.35;;;26.00;41.10;;;;;;7365868;19;20082;-75
2022/05/09 13:04:04;;;;;;;11.60;6.22;;;26.10;40.50;;;;;;7364101;19;20081;-76
2022/05/09 13:06:38;;;;;;;13.25;6.00;;;26.10;40.40;;;;;;7366775;19;20034;-76
2022/05/09 13:09:19;;;;;;;11.93;6.72;;;26.20;40.80;;;;;;7366673;19;20022;-75
2022/05/09 13:11:49;;;;;;;;;;;26.20;40.00;;;;;;7368186;19;20085;-76
2022/05/09 13:14:23;;;;;;;13.27;5.90;;;26.20;40.10;;;;;;7366421;19;19918;-75
2022/05/09 13:16:56;;;;;;;9.73;6.53;;;26.20;40.20;;;;;;7385469;19;20462;-75
2022/05/09 13:19:26;;;;;;;15.18;6.15;;;26.30;40.10;;;;;;7363924;19;20641;-76